VIDP/DEL METAR and TAF weather

Enter ICAO airport designator
Station Type Date Time Source
VIDP METAR 2019/10/21 02:00 UTC NOAA

VIDP 210200Z 23003KT 1000 R28/P2000 R29/1800 BR FEW100 20/16 Q1015 NOSIG


Station Type Date Time Source
VIDP Decoded METAR 2019/10/21 02:00 UTC NOAA

New Delhi / Palam, India (VIDP) 28-34N 077-07E 233M
Oct 20, 2019 - 10:00 PM EDT / 2019.10.21 0200 UTC
Wind: from the SW (230 degrees) at 3 MPH (3 KT):0
Visibility: less than 1 mile:0
Sky conditions: mostly clear
Weather: mist
Temperature: 68 F (20 C)
Dew Point: 60 F (16 C)
Relative Humidity: 77%
Pressure (altimeter): 29.97 in. Hg (1015 hPa)
ob: VIDP 210200Z 23003KT 1000 R28/P2000 R29/1800 BR FEW100 20/16 Q1015 NOSIG
cycle: 2

Station Type Date Time Source
VIDP TAF 2019/10/20 18:41 UTC NOAA

TAF VIDP 201700Z 2018/2124 00000KT 3000 HZ FEW100
BECMG 2100/2102 34003KT 1500 BR
BECMG 2105/2107 32005KT 2500 HZ NSC
BECMG 2108/2109 32007KT 4000 HZ FEW035
BECMG 2109/2115 FEW040CB
BECMG 2115/2117 00000KT 2500 HZ
BECMG 2121/2122 1500 BR

Example: see airport list